createdAt,value
2019-03-19T00:00:10.277Z,99.90
2019-03-19T00:02:38.806Z,99.90
2019-03-19T00:05:07.184Z,99.90
2019-03-19T00:07:35.565Z,99.90
2019-03-19T00:10:04.163Z,99.90
2019-03-19T00:12:32.606Z,99.90
2019-03-19T00:15:00.740Z,99.90
2019-03-19T00:17:29.087Z,99.90
2019-03-19T00:19:57.177Z,99.90
2019-03-19T00:22:25.875Z,99.90
2019-03-19T00:24:53.986Z,99.90
2019-03-19T00:27:21.977Z,99.90
2019-03-19T00:29:50.653Z,99.90
2019-03-19T00:32:18.757Z,99.90
2019-03-19T00:34:46.927Z,99.90
2019-03-19T00:37:14.901Z,99.90
2019-03-19T00:39:43.100Z,99.90
2019-03-19T00:42:11.023Z,99.90
2019-03-19T00:44:39.705Z,99.90
2019-03-19T00:47:07.770Z,99.90
2019-03-19T00:49:36.147Z,99.90
2019-03-19T00:52:03.826Z,99.90
2019-03-19T00:54:31.761Z,99.90
2019-03-19T00:56:59.523Z,99.90
2019-03-19T00:59:27.809Z,99.90
2019-03-19T01:01:55.481Z,99.90
2019-03-19T01:04:23.506Z,99.90
2019-03-19T01:06:52.021Z,99.90
2019-03-19T01:09:20.399Z,99.90
2019-03-19T01:11:48.806Z,99.90
2019-03-19T01:14:16.613Z,99.90
2019-03-19T01:16:44.969Z,99.90
2019-03-19T01:19:13.024Z,99.90
2019-03-19T01:21:41.178Z,99.90
2019-03-19T01:24:08.858Z,99.90
2019-03-19T01:26:36.550Z,99.90
2019-03-19T01:29:04.343Z,99.90
2019-03-19T01:31:32.434Z,99.90
2019-03-19T01:34:00.812Z,99.90
2019-03-19T01:36:28.882Z,99.90
2019-03-19T01:38:57.086Z,99.90
2019-03-19T01:41:25.974Z,99.90
2019-03-19T01:43:54.642Z,99.90
2019-03-19T01:46:22.310Z,99.90
2019-03-19T01:48:50.184Z,99.90
2019-03-19T01:51:18.783Z,99.90
2019-03-19T01:53:46.753Z,99.90
2019-03-19T01:56:14.673Z,99.90
2019-03-19T01:58:43.982Z,99.90
2019-03-19T02:01:12.379Z,99.90
2019-03-19T02:03:40.434Z,99.90
2019-03-19T02:06:08.597Z,99.90
2019-03-19T02:08:36.273Z,99.90
2019-03-19T02:11:04.341Z,99.90
2019-03-19T02:13:32.537Z,99.90
2019-03-19T02:16:00.778Z,99.90
2019-03-19T02:18:28.881Z,99.90
2019-03-19T02:20:57.543Z,99.90
2019-03-19T02:23:25.621Z,99.90
2019-03-19T02:25:53.852Z,99.90
2019-03-19T02:28:21.766Z,99.90
2019-03-19T02:30:49.659Z,99.90
2019-03-19T02:33:17.597Z,99.90
2019-03-19T02:35:45.779Z,99.90
2019-03-19T02:38:14.062Z,99.90
2019-03-19T02:40:42.130Z,99.90
2019-03-19T02:43:10.221Z,99.90
2019-03-19T02:45:38.378Z,99.90
2019-03-19T02:48:06.728Z,99.90
2019-03-19T02:50:35.042Z,99.90
2019-03-19T02:53:03.393Z,99.90
2019-03-19T02:55:31.524Z,99.90
2019-03-19T02:57:59.652Z,99.90
2019-03-19T03:00:28.206Z,99.90
2019-03-19T03:02:56.406Z,99.90
2019-03-19T03:05:24.693Z,99.90
2019-03-19T03:07:53.145Z,99.90
2019-03-19T03:10:21.513Z,99.90
2019-03-19T03:12:49.805Z,99.90
2019-03-19T03:15:18.194Z,99.90
2019-03-19T03:17:46.300Z,99.90
2019-03-19T03:20:14.860Z,99.90
2019-03-19T03:22:42.909Z,99.90
2019-03-19T03:25:11.281Z,99.90
2019-03-19T03:27:39.401Z,99.90
2019-03-19T03:30:08.463Z,99.90
2019-03-19T03:32:36.555Z,99.90
2019-03-19T03:35:04.705Z,99.90
2019-03-19T03:37:32.603Z,99.90
2019-03-19T03:40:00.788Z,99.90
2019-03-19T03:42:29.757Z,99.90
2019-03-19T03:44:57.737Z,99.90
2019-03-19T03:47:26.217Z,99.90
2019-03-19T03:49:54.474Z,99.90
2019-03-19T03:52:23.173Z,99.90
2019-03-19T03:54:51.230Z,99.90
2019-03-19T03:57:19.439Z,99.90
2019-03-19T03:59:47.355Z,99.90
2019-03-19T04:02:15.137Z,99.90
2019-03-19T04:04:43.007Z,99.90
2019-03-19T04:07:15.951Z,99.90
2019-03-19T04:09:44.597Z,99.90
2019-03-19T04:12:12.642Z,99.90
2019-03-19T04:14:47.049Z,99.90
2019-03-19T04:17:15.575Z,99.90
2019-03-19T04:19:45.569Z,99.90
2019-03-19T04:22:15.979Z,99.90
2019-03-19T04:24:44.096Z,99.90
2019-03-19T04:27:16.166Z,99.90
2019-03-19T04:29:42.963Z,99.90
2019-03-19T04:32:10.724Z,99.90
2019-03-19T04:34:38.797Z,99.90
2019-03-19T04:37:07.197Z,99.90
2019-03-19T04:39:35.252Z,99.90
2019-03-19T04:42:03.594Z,99.90
2019-03-19T04:44:33.432Z,99.90
2019-03-19T04:47:01.533Z,99.90
2019-03-19T04:49:29.600Z,99.90
2019-03-19T04:51:57.543Z,99.90
2019-03-19T04:54:25.546Z,99.90
2019-03-19T04:56:53.807Z,99.90
2019-03-19T04:59:21.665Z,99.90
2019-03-19T05:01:49.758Z,99.90
2019-03-19T05:04:17.809Z,99.90
2019-03-19T05:06:46.468Z,99.90
2019-03-19T05:09:14.484Z,99.90
2019-03-19T05:11:42.634Z,99.90
2019-03-19T05:14:10.490Z,99.90
2019-03-19T05:16:44.969Z,99.90
2019-03-19T05:19:13.018Z,99.90
2019-03-19T05:21:40.994Z,99.90
2019-03-19T05:24:10.606Z,99.90
2019-03-19T05:26:38.737Z,99.90
2019-03-19T05:29:06.714Z,99.90
2019-03-19T05:31:34.490Z,99.90
2019-03-19T05:34:02.546Z,99.90
2019-03-19T05:36:30.391Z,99.90
2019-03-19T05:38:58.696Z,99.90
2019-03-19T05:41:26.902Z,99.90
2019-03-19T05:43:55.551Z,99.90
2019-03-19T05:46:23.518Z,99.90
2019-03-19T05:48:51.669Z,99.90
2019-03-19T05:51:20.042Z,99.90
2019-03-19T05:53:48.296Z,99.90
2019-03-19T05:56:16.733Z,99.90
2019-03-19T05:58:44.905Z,99.90
2019-03-19T06:01:13.216Z,99.90
2019-03-19T06:03:41.310Z,99.90
2019-03-19T06:06:10.006Z,99.90
2019-03-19T06:08:38.645Z,99.90
2019-03-19T06:11:06.997Z,99.90
2019-03-19T06:13:35.070Z,99.90
2019-03-19T06:16:03.463Z,99.90
2019-03-19T06:18:35.452Z,99.90
2019-03-19T06:21:01.770Z,99.90
2019-03-19T06:23:29.805Z,99.90
2019-03-19T06:25:58.044Z,99.90
2019-03-19T06:28:26.181Z,99.90
2019-03-19T06:30:54.021Z,99.90
2019-03-19T06:33:22.592Z,99.90
2019-03-19T06:35:50.593Z,99.90
2019-03-19T06:38:18.882Z,99.90
2019-03-19T06:40:47.281Z,99.90
2019-03-19T06:43:15.812Z,99.90
2019-03-19T06:45:46.702Z,99.90
2019-03-19T06:48:14.841Z,99.90
2019-03-19T06:50:45.481Z,99.90
2019-03-19T06:53:12.923Z,99.90
2019-03-19T06:55:40.969Z,99.90
2019-03-19T06:58:11.236Z,99.90
2019-03-19T07:00:39.482Z,99.90
2019-03-19T07:03:07.723Z,99.90
2019-03-19T07:05:35.937Z,99.90
2019-03-19T07:08:04.201Z,99.90
2019-03-19T07:10:32.399Z,99.90
2019-03-19T07:13:00.474Z,99.90
2019-03-19T07:15:28.709Z,99.90
2019-03-19T07:17:56.921Z,99.90
2019-03-19T07:20:25.133Z,99.90
2019-03-19T07:22:53.349Z,99.90
2019-03-19T07:25:21.470Z,99.90
2019-03-19T07:27:49.710Z,99.90
2019-03-19T07:30:18.093Z,99.90
2019-03-19T07:32:46.003Z,99.90
2019-03-19T07:35:14.146Z,99.90
2019-03-19T07:37:42.399Z,99.90
2019-03-19T07:40:10.793Z,99.90
2019-03-19T07:42:38.901Z,99.90
2019-03-19T07:45:09.093Z,99.90
2019-03-19T07:47:37.254Z,99.90
2019-03-19T07:50:06.472Z,99.90
2019-03-19T07:52:34.754Z,99.90
2019-03-19T07:55:03.531Z,99.90
2019-03-19T07:57:31.609Z,99.90
2019-03-19T08:00:00.341Z,99.90
2019-03-19T08:02:28.957Z,99.90
2019-03-19T08:04:57.093Z,99.90
2019-03-19T08:07:25.709Z,99.90
2019-03-19T08:09:53.805Z,99.90
2019-03-19T08:12:21.992Z,99.90
2019-03-19T08:14:50.015Z,99.90
2019-03-19T08:17:18.029Z,99.90
2019-03-19T08:19:46.596Z,99.90
2019-03-19T08:22:14.814Z,99.90
2019-03-19T08:24:42.943Z,99.90
2019-03-19T08:27:11.200Z,99.90
2019-03-19T08:29:39.797Z,99.90
2019-03-19T08:32:08.267Z,99.90
2019-03-19T08:34:39.660Z,99.90
2019-03-19T08:37:08.058Z,99.90
2019-03-19T08:39:38.440Z,99.90
2019-03-19T08:42:06.584Z,99.90
2019-03-19T08:44:35.030Z,99.90
2019-03-19T08:47:02.841Z,99.90
2019-03-19T08:49:31.246Z,99.90
2019-03-19T08:51:59.277Z,98.00
2019-03-19T08:54:27.364Z,97.40
2019-03-19T08:56:55.753Z,98.90
2019-03-19T08:59:24.105Z,97.10
2019-03-19T09:01:52.213Z,97.20
2019-03-19T09:04:20.283Z,97.70
2019-03-19T09:06:48.426Z,97.60
2019-03-19T09:09:16.646Z,98.40
2019-03-19T09:11:44.773Z,97.80
2019-03-19T09:14:13.062Z,98.00
2019-03-19T09:16:41.151Z,97.70
2019-03-19T09:19:08.926Z,98.10
2019-03-19T09:21:36.649Z,97.60
2019-03-19T09:24:04.339Z,94.60
2019-03-19T09:26:32.442Z,93.80
2019-03-19T09:29:00.246Z,93.00
2019-03-19T09:31:28.543Z,92.30
2019-03-19T09:33:56.316Z,93.60
2019-03-19T09:36:24.007Z,94.60
2019-03-19T09:38:51.694Z,95.80
2019-03-19T09:41:19.399Z,96.10
2019-03-19T09:43:47.166Z,95.90
2019-03-19T09:46:16.054Z,96.60
2019-03-19T09:48:43.698Z,96.20
2019-03-19T09:51:11.409Z,96.00
2019-03-19T09:53:39.129Z,95.70
2019-03-19T09:56:07.402Z,94.90
2019-03-19T09:58:37.024Z,94.00
2019-03-19T10:01:04.794Z,94.40
2019-03-19T10:03:38.304Z,94.30
2019-03-19T10:06:14.044Z,94.30
2019-03-19T10:08:36.376Z,95.30
2019-03-19T10:11:15.651Z,96.40
2019-03-19T10:13:42.110Z,96.80
2019-03-19T10:16:10.214Z,96.60
2019-03-19T10:18:40.933Z,95.20
2019-03-19T10:21:17.936Z,94.40
2019-03-19T10:23:45.660Z,93.50
2019-03-19T10:26:13.389Z,93.30
2019-03-19T10:28:41.070Z,94.20
2019-03-19T10:31:08.762Z,94.10
2019-03-19T10:33:36.447Z,93.70
2019-03-19T10:36:08.515Z,93.80
2019-03-19T10:38:36.309Z,92.70
2019-03-19T10:41:04.074Z,93.00
2019-03-19T10:43:31.752Z,93.80
2019-03-19T10:46:00.421Z,91.30
2019-03-19T10:48:28.243Z,86.00
2019-03-19T10:51:04.562Z,81.20
2019-03-19T10:53:32.894Z,83.10
2019-03-19T10:56:00.619Z,83.20
2019-03-19T10:58:28.374Z,89.20
2019-03-19T11:00:56.756Z,91.00
2019-03-19T11:03:24.398Z,91.30
2019-03-19T11:05:52.205Z,91.90
2019-03-19T11:08:19.879Z,92.10
2019-03-19T11:10:47.834Z,91.90
2019-03-19T11:13:15.805Z,90.80
2019-03-19T11:15:43.875Z,87.80
2019-03-19T11:18:11.636Z,86.80
2019-03-19T11:20:39.380Z,83.40
2019-03-19T11:23:07.157Z,77.50
2019-03-19T11:25:34.933Z,78.80
2019-03-19T11:28:02.653Z,80.60
2019-03-19T11:30:30.534Z,80.00
2019-03-19T11:32:58.338Z,81.10
2019-03-19T11:35:27.170Z,85.30
2019-03-19T11:37:54.859Z,87.30
2019-03-19T11:40:25.471Z,87.60
2019-03-19T11:42:55.418Z,88.90
2019-03-19T11:45:23.470Z,87.60
2019-03-19T11:47:55.245Z,88.10
2019-03-19T11:50:23.021Z,88.50
2019-03-19T11:52:52.218Z,89.20
2019-03-19T11:55:20.112Z,89.70
2019-03-19T11:57:48.090Z,90.20
2019-03-19T12:00:26.760Z,89.60
2019-03-19T12:02:54.709Z,90.40
2019-03-19T12:05:22.556Z,89.30
2019-03-19T12:07:50.242Z,86.80
2019-03-19T12:10:17.968Z,82.60
2019-03-19T12:12:48.497Z,83.00
2019-03-19T12:15:16.910Z,83.60
2019-03-19T12:17:44.636Z,84.50
2019-03-19T12:20:13.132Z,81.80
2019-03-19T12:22:42.811Z,77.90
2019-03-19T12:25:11.276Z,75.10
2019-03-19T12:27:41.508Z,73.50
2019-03-19T12:30:22.517Z,72.10
2019-03-19T12:32:49.020Z,70.80
2019-03-19T12:35:17.360Z,71.70
2019-03-19T12:37:48.384Z,70.80
2019-03-19T12:40:16.606Z,73.70
2019-03-19T12:42:44.774Z,73.40
2019-03-19T12:45:13.787Z,73.80
2019-03-19T12:47:43.969Z,62.10
2019-03-19T12:50:14.166Z,70.30
2019-03-19T12:52:42.287Z,70.50
2019-03-19T12:55:22.007Z,65.30
2019-03-19T12:57:55.007Z,60.30
2019-03-19T13:00:37.670Z,60.40
2019-03-19T13:03:06.027Z,59.60
2019-03-19T13:05:34.396Z,63.80
2019-03-19T13:08:02.677Z,63.70
2019-03-19T13:10:30.835Z,62.80
2019-03-19T13:12:59.013Z,62.20
2019-03-19T13:15:27.296Z,61.30
2019-03-19T13:17:55.673Z,62.10
2019-03-19T13:20:23.891Z,62.40
2019-03-19T13:22:52.425Z,61.30
2019-03-19T13:25:21.116Z,63.00
2019-03-19T13:27:48.993Z,65.00
2019-03-19T13:30:17.766Z,66.60
2019-03-19T13:32:45.563Z,66.80
2019-03-19T13:35:13.434Z,67.90
2019-03-19T13:37:41.131Z,66.70
2019-03-19T13:40:09.830Z,67.00
2019-03-19T13:42:37.522Z,63.10
2019-03-19T13:45:05.947Z,62.60
2019-03-19T13:47:33.678Z,61.50
2019-03-19T13:50:01.399Z,63.00
2019-03-19T13:52:29.410Z,64.20
2019-03-19T13:54:57.662Z,62.30
2019-03-19T13:57:25.795Z,62.10
2019-03-19T13:59:54.028Z,61.20
2019-03-19T14:02:22.209Z,61.10
2019-03-19T14:04:50.302Z,60.80
2019-03-19T14:07:18.640Z,58.50
2019-03-19T14:09:46.997Z,59.70
2019-03-19T14:12:17.933Z,59.10
2019-03-19T14:14:46.031Z,57.50
2019-03-19T14:17:14.567Z,57.50
2019-03-19T14:19:42.938Z,57.50
2019-03-19T14:22:11.802Z,58.30
2019-03-19T14:24:40.069Z,59.00
2019-03-19T14:27:08.486Z,58.40
2019-03-19T14:29:36.526Z,58.00
2019-03-19T14:32:05.146Z,57.40
2019-03-19T14:34:32.989Z,58.10
2019-03-19T14:37:01.332Z,59.30
2019-03-19T14:39:29.385Z,59.00
2019-03-19T14:41:57.803Z,59.10
2019-03-19T14:44:28.634Z,59.10
2019-03-19T14:46:56.857Z,57.30
2019-03-19T14:49:25.330Z,55.30
2019-03-19T14:51:52.985Z,55.70
2019-03-19T14:54:20.666Z,56.60
2019-03-19T14:56:48.353Z,57.00
2019-03-19T14:59:17.862Z,57.50
2019-03-19T15:01:45.542Z,58.20
2019-03-19T15:04:13.368Z,56.40
2019-03-19T15:06:50.507Z,56.10
2019-03-19T15:09:30.522Z,56.60
2019-03-19T15:12:15.814Z,57.40
2019-03-19T15:14:56.516Z,56.30
2019-03-19T15:17:36.900Z,56.50
2019-03-19T15:20:21.832Z,56.00
2019-03-19T15:23:03.871Z,55.90
2019-03-19T15:25:45.653Z,56.40
2019-03-19T15:28:21.000Z,56.30
2019-03-19T15:31:57.604Z,55.90
2019-03-19T15:35:39.084Z,56.00
2019-03-19T15:38:16.452Z,55.60
2019-03-19T15:40:55.809Z,56.20
2019-03-19T15:43:36.916Z,56.90
2019-03-19T15:46:17.871Z,56.00
2019-03-19T15:48:56.915Z,56.70
2019-03-19T15:51:37.339Z,56.10
2019-03-19T15:54:11.806Z,55.80
2019-03-19T15:56:39.961Z,54.00
2019-03-19T15:59:07.639Z,54.60
2019-03-19T16:01:40.330Z,55.30
2019-03-19T16:04:04.936Z,53.40
2019-03-19T16:06:32.686Z,54.10
2019-03-19T16:09:00.421Z,54.90
2019-03-19T16:11:28.103Z,54.80
2019-03-19T16:13:56.798Z,54.90
2019-03-19T16:16:36.245Z,54.50
2019-03-19T16:19:16.498Z,53.60
2019-03-19T16:21:59.832Z,54.50
2019-03-19T16:24:27.794Z,52.50
2019-03-19T16:26:56.567Z,52.30
2019-03-19T16:29:26.371Z,52.00
2019-03-19T16:31:54.418Z,52.00
2019-03-19T16:34:22.532Z,52.30
2019-03-19T16:36:50.221Z,52.50
2019-03-19T16:39:18.969Z,52.20
2019-03-19T16:41:46.817Z,52.70
2019-03-19T16:44:15.145Z,52.00
2019-03-19T16:46:43.614Z,52.30
2019-03-19T16:49:11.696Z,53.40
2019-03-19T16:51:39.725Z,53.00
2019-03-19T16:54:07.410Z,53.40
2019-03-19T16:56:35.146Z,53.90
2019-03-19T16:59:02.818Z,54.00
2019-03-19T17:01:30.805Z,54.30
2019-03-19T17:03:58.853Z,54.00
2019-03-19T17:06:26.522Z,53.30
2019-03-19T17:08:55.086Z,53.60
2019-03-19T17:11:23.073Z,53.70
2019-03-19T17:13:51.532Z,53.60
2019-03-19T17:16:20.046Z,53.60
2019-03-19T17:18:47.906Z,53.90
2019-03-19T17:21:16.019Z,53.90
2019-03-19T17:23:44.555Z,53.90
2019-03-19T17:26:12.549Z,54.00
2019-03-19T17:28:40.792Z,54.50
2019-03-19T17:31:08.669Z,55.10
2019-03-19T17:33:36.461Z,55.70
2019-03-19T17:36:04.612Z,56.10
2019-03-19T17:38:32.707Z,56.50
2019-03-19T17:41:00.953Z,56.30
2019-03-19T17:43:29.324Z,56.50
2019-03-19T17:45:57.013Z,56.80
2019-03-19T17:48:25.291Z,57.00
2019-03-19T17:50:55.154Z,57.10
2019-03-19T17:53:26.122Z,57.30
2019-03-19T17:55:55.823Z,57.30
2019-03-19T17:58:26.428Z,57.30
2019-03-19T18:00:54.782Z,57.70
2019-03-19T18:03:23.550Z,57.20
2019-03-19T18:05:51.505Z,57.30
2019-03-19T18:08:19.778Z,57.10
2019-03-19T18:10:48.015Z,57.30
2019-03-19T18:13:16.320Z,57.40
2019-03-19T18:15:44.419Z,57.60
2019-03-19T18:18:13.086Z,57.80
2019-03-19T18:20:41.170Z,57.80
2019-03-19T18:23:09.171Z,58.00
2019-03-19T18:25:37.597Z,58.50
2019-03-19T18:28:05.694Z,59.00
2019-03-19T18:30:33.851Z,59.10
2019-03-19T18:33:03.966Z,59.40
2019-03-19T18:35:32.282Z,59.90
2019-03-19T18:38:00.108Z,60.30
2019-03-19T18:40:28.198Z,60.60
2019-03-19T18:42:56.565Z,60.90
2019-03-19T18:45:24.932Z,61.30
2019-03-19T18:47:53.130Z,61.90
2019-03-19T18:50:21.136Z,62.40
2019-03-19T18:52:49.491Z,63.10
2019-03-19T18:55:17.740Z,63.80
2019-03-19T18:57:45.429Z,64.60
2019-03-19T19:00:14.621Z,65.00
2019-03-19T19:02:49.640Z,65.30
2019-03-19T19:05:12.953Z,65.90
2019-03-19T19:07:41.086Z,67.50
2019-03-19T19:10:09.756Z,67.20
2019-03-19T19:12:37.818Z,67.90
2019-03-19T19:15:07.109Z,68.90
2019-03-19T19:17:35.430Z,69.20
2019-03-19T19:20:03.766Z,69.90
2019-03-19T19:22:31.898Z,70.10
2019-03-19T19:24:59.601Z,70.50
2019-03-19T19:27:27.288Z,71.10
2019-03-19T19:29:55.605Z,71.30
2019-03-19T19:32:23.553Z,72.20
2019-03-19T19:34:51.918Z,72.70
2019-03-19T19:37:19.613Z,73.30
2019-03-19T19:39:47.312Z,73.70
2019-03-19T19:42:15.092Z,74.00
2019-03-19T19:44:43.052Z,74.20
2019-03-19T19:47:11.340Z,74.80
2019-03-19T19:49:39.740Z,75.80
2019-03-19T19:52:08.103Z,77.00
2019-03-19T19:54:39.146Z,76.40
2019-03-19T19:57:07.312Z,77.70
2019-03-19T19:59:35.153Z,78.10
2019-03-19T20:02:03.684Z,79.50
2019-03-19T20:04:31.922Z,80.00
2019-03-19T20:07:01.325Z,80.30
2019-03-19T20:09:29.354Z,81.70
2019-03-19T20:11:57.384Z,81.80
2019-03-19T20:14:26.082Z,82.20
2019-03-19T20:16:54.191Z,83.10
2019-03-19T20:19:22.682Z,83.70
2019-03-19T20:21:51.207Z,83.70
2019-03-19T20:24:19.269Z,82.90
2019-03-19T20:26:47.479Z,83.30
2019-03-19T20:29:15.406Z,83.60
2019-03-19T20:31:44.206Z,83.90
2019-03-19T20:34:12.660Z,83.90
2019-03-19T20:36:40.774Z,84.40
2019-03-19T20:39:09.383Z,84.60
2019-03-19T20:41:37.393Z,84.70
2019-03-19T20:44:05.738Z,85.10
2019-03-19T20:46:33.580Z,85.20
2019-03-19T20:49:01.729Z,85.50
2019-03-19T20:51:30.013Z,85.40
2019-03-19T20:53:58.440Z,86.00
2019-03-19T20:56:26.554Z,86.10
2019-03-19T20:58:54.697Z,86.30
2019-03-19T21:01:22.806Z,86.60
2019-03-19T21:03:51.101Z,86.70
2019-03-19T21:06:19.331Z,87.00
2019-03-19T21:08:48.040Z,87.20
2019-03-19T21:11:16.234Z,87.30
2019-03-19T21:13:44.166Z,87.50
2019-03-19T21:16:12.586Z,87.30
2019-03-19T21:18:40.645Z,87.70
2019-03-19T21:21:08.795Z,88.10
2019-03-19T21:23:37.292Z,87.70
2019-03-19T21:26:05.346Z,88.10
2019-03-19T21:28:33.554Z,88.00
2019-03-19T21:31:01.677Z,88.30
2019-03-19T21:33:30.314Z,89.10
2019-03-19T21:35:58.374Z,89.20
2019-03-19T21:38:26.575Z,89.20
2019-03-19T21:40:55.207Z,89.70
2019-03-19T21:43:23.500Z,89.60
2019-03-19T21:45:51.454Z,89.80
2019-03-19T21:48:19.860Z,89.90
2019-03-19T21:50:48.208Z,90.10
2019-03-19T21:53:16.937Z,90.40
2019-03-19T21:55:44.981Z,90.50
2019-03-19T21:58:13.152Z,90.60
2019-03-19T22:00:41.423Z,90.80
2019-03-19T22:03:09.835Z,91.00
2019-03-19T22:05:37.721Z,91.00
2019-03-19T22:08:06.045Z,91.10
2019-03-19T22:10:34.137Z,91.90
2019-03-19T22:13:02.863Z,92.70
2019-03-19T22:15:30.878Z,92.70
2019-03-19T22:17:59.306Z,92.60
2019-03-19T22:20:27.560Z,92.40
2019-03-19T22:22:55.966Z,92.40
2019-03-19T22:25:24.302Z,92.50
2019-03-19T22:27:52.784Z,92.90
2019-03-19T22:30:21.302Z,93.20
2019-03-19T22:32:49.448Z,93.50
2019-03-19T22:35:17.812Z,93.70
2019-03-19T22:37:46.597Z,94.00
2019-03-19T22:40:14.587Z,94.10
2019-03-19T22:42:43.279Z,94.10
2019-03-19T22:45:12.860Z,94.60
2019-03-19T22:47:41.122Z,94.00
2019-03-19T22:50:10.035Z,94.00
2019-03-19T22:52:38.604Z,93.90
2019-03-19T22:55:06.916Z,94.00
2019-03-19T22:57:37.074Z,94.20
2019-03-19T23:00:08.276Z,94.50
2019-03-19T23:02:36.530Z,94.00
2019-03-19T23:05:05.854Z,94.10
2019-03-19T23:07:34.217Z,94.00
2019-03-19T23:10:05.020Z,94.00
2019-03-19T23:12:33.237Z,94.00
2019-03-19T23:15:01.178Z,93.80
2019-03-19T23:17:29.861Z,94.40
2019-03-19T23:19:58.930Z,93.90
2019-03-19T23:22:27.043Z,94.20
2019-03-19T23:24:55.443Z,94.20
2019-03-19T23:27:23.882Z,94.20
2019-03-19T23:29:51.953Z,94.30
2019-03-19T23:32:20.359Z,94.40
2019-03-19T23:34:48.406Z,94.20
2019-03-19T23:37:16.502Z,94.30
2019-03-19T23:39:44.663Z,94.50
2019-03-19T23:42:12.910Z,94.60
2019-03-19T23:44:40.903Z,94.60
2019-03-19T23:47:09.079Z,94.50
2019-03-19T23:49:37.343Z,94.40
2019-03-19T23:52:05.414Z,94.20
2019-03-19T23:54:33.602Z,94.20
2019-03-19T23:57:01.908Z,94.40
2019-03-19T23:59:29.935Z,94.80
